Sfax, Tunisia
Current Conditions -  °F | °C
As of 4:00 PM on Monday 24 Nov 2014 (Local Time) from DTTX Reporting Station
Scattered Clouds Scattered Clouds  
Wind Chill: 70°   Ceiling: Unl
Heat Index: 70°   Visibility: 6mi
Dew Point: 63°   Wind: 5mph
Humidity: 78%   Direction: 150°SSE
Pressure: 30.15"   Gusts: NA
Location:  34.75°N, 10.76°E
Report Text: DTTX 241500Z 15004KT 9999 SCT026 21/17 Q1021 NOSIG
Loading
Personal Weather Stations






























Interactive Weather Map New forecast layout! Learn more

10-Day Weather Forecast

Advertisements
Track Severe Weather on mobile